KMKO/MKO METAR and TAF weather

Enter ICAO airport designator
Station Type Date Time Source
KMKO METAR 2022/05/24 12:14 UTC NOAA

KMKO 241214Z AUTO 11009KT 9SM BKN013 OVC023 17/16 A2993 RMK AO2 T01720161


Station Type Date Time Source
KMKO Decoded METAR 2022/05/24 12:14 UTC NOAA

MUSKOGEE DAVIS FIELD, OK, United States (KMKO) 35-39N 95-22W 185M
May 24, 2022 - 08:14 AM EDT / 2022.05.24 1214 UTC
Wind: from the ESE (110 degrees) at 10 MPH (9 KT):0
Visibility: 9 mile(s):0
Sky conditions: overcast
Temperature: 63.0 F (17.2 C)
Dew Point: 61.0 F (16.1 C)
Relative Humidity: 93%
Pressure (altimeter): 29.93 in. Hg (1013 hPa)
ob: KMKO 241214Z AUTO 11009KT 9SM BKN013 OVC023 17/16 A2993 RMK AO2 T01720161
cycle: 12

Station Type Date Time Source
KMKO TAF UTC NOAA

Error!

Example: see airport list